Time;durP1;ratioP1;P1;durP2;ratioP2;P2;SDS_P1;SDS_P2;PMS_P1;PMS_P2;Temp;Humidity;BMP_temperature;BMP_pressure;BME280_temperature;BME280_humidity;BME280_pressure;Samples;Min_cycle;Max_cycle;Signal;HPM_P1;HPM_P2
2023/06/05 00:01:36;;;;;;;5.20;2.05;;;14.10;99.90;;;;;;7331523;32;20242;-55
2023/06/05 00:05:38;;;;;;;7.07;1.98;;;14.10;99.90;;;;;;7331428;32;20208;-55
2023/06/05 00:09:40;;;;;;;4.55;1.52;;;14.20;99.90;;;;;;7333579;32;20110;-56
2023/06/05 00:13:42;;;;;;;3.58;1.50;;;14.20;99.90;;;;;;7332077;32;20111;-55
2023/06/05 00:17:45;;;;;;;6.12;1.80;;;14.10;99.90;;;;;;7326768;32;20142;-55
2023/06/05 00:21:50;;;;;;;5.22;2.00;;;14.10;99.90;;;;;;7328782;32;20265;-55
2023/06/05 00:25:52;;;;;;;5.45;1.98;;;14.20;99.90;;;;;;7339276;32;20242;-54
2023/06/05 00:29:53;;;;;;;4.53;2.12;;;14.20;99.90;;;;;;7335691;32;20682;-55
2023/06/05 00:33:55;;;;;;;5.90;2.20;;;14.20;99.90;;;;;;7317041;32;20232;-55
2023/06/05 00:37:57;;;;;;;7.07;2.47;;;14.10;99.90;;;;;;7331040;32;20153;-55
2023/06/05 00:41:59;;;;;;;6.72;2.28;;;14.00;99.90;;;;;;7324862;32;20188;-54
2023/06/05 00:46:03;;;;;;;4.65;2.30;;;14.00;99.90;;;;;;7324337;32;20221;-54
2023/06/05 00:50:07;;;;;;;5.95;2.75;;;14.00;99.90;;;;;;7327842;32;20635;-53
2023/06/05 00:54:09;;;;;;;6.43;2.80;;;13.90;99.90;;;;;;7328760;32;20201;-54
2023/06/05 00:58:13;;;;;;;7.40;2.53;;;13.80;99.90;;;;;;7332299;32;20525;-55
2023/06/05 01:02:16;;;;;;;7.40;2.85;;;13.90;99.90;;;;;;7332252;32;20163;-55
2023/06/05 01:06:19;;;;;;;7.82;2.40;;;13.80;99.90;;;;;;7330664;32;20124;-55
2023/06/05 01:10:21;;;;;;;7.93;2.70;;;13.80;99.90;;;;;;7324532;32;20220;-55
2023/06/05 01:14:27;;;;;;;7.25;2.80;;;13.70;99.90;;;;;;7333298;32;20232;-54
2023/06/05 01:18:30;;;;;;;8.00;2.50;;;13.60;99.90;;;;;;7331513;32;20138;-55
2023/06/05 01:22:32;;;;;;;5.45;2.60;;;13.60;99.90;;;;;;7319857;32;20141;-55
2023/06/05 01:26:52;;;;;;;6.20;2.42;;;13.60;99.90;;;;;;7333354;32;20321;-55
2023/06/05 01:30:53;;;;;;;4.82;2.37;;;13.60;99.90;;;;;;7327069;32;20107;-55
2023/06/05 01:34:58;;;;;;;4.72;2.40;;;13.50;99.90;;;;;;7337463;32;20115;-57
2023/06/05 01:39:01;;;;;;;5.32;2.62;;;13.50;99.90;;;;;;7321349;32;20123;-55
2023/06/05 01:43:05;;;;;;;7.22;2.55;;;13.40;99.90;;;;;;7333588;32;20142;-55
2023/06/05 01:47:08;;;;;;;6.75;2.60;;;13.40;99.90;;;;;;7330373;32;20133;-54
2023/06/05 01:51:10;;;;;;;5.70;2.70;;;13.40;99.90;;;;;;7331982;32;20137;-55
2023/06/05 01:55:20;;;;;;;10.45;3.22;;;13.30;99.90;;;;;;7326226;32;20104;-55
2023/06/05 01:59:21;;;;;;;6.85;3.22;;;13.20;99.90;;;;;;7331048;32;20199;-55
2023/06/05 02:03:24;;;;;;;8.60;3.05;;;13.10;99.90;;;;;;7325827;32;20217;-57
2023/06/05 02:07:26;;;;;;;5.80;2.92;;;13.20;99.90;;;;;;7325030;32;20203;-57
2023/06/05 02:11:29;;;;;;;6.82;3.28;;;13.10;99.90;;;;;;7331575;32;20161;-57
2023/06/05 02:15:33;;;;;;;6.70;3.08;;;13.10;99.90;;;;;;7326950;32;20598;-54
2023/06/05 02:19:35;;;;;;;8.82;3.60;;;13.00;99.90;;;;;;7330869;32;20169;-55
2023/06/05 02:23:37;;;;;;;9.15;4.07;;;12.90;99.90;;;;;;7327439;32;20453;-56
2023/06/05 02:27:39;;;;;;;8.73;3.87;;;12.90;99.90;;;;;;7329020;32;20155;-54
2023/06/05 02:31:41;;;;;;;5.78;3.03;;;12.70;99.90;;;;;;7335804;32;20112;-54
2023/06/05 02:35:42;;;;;;;9.23;3.37;;;12.70;99.90;;;;;;7320889;32;20623;-55
2023/06/05 02:39:45;;;;;;;7.20;3.70;;;12.70;99.90;;;;;;7328088;32;20462;-55
2023/06/05 02:43:47;;;;;;;6.80;3.90;;;12.60;99.90;;;;;;7326650;32;20123;-54
2023/06/05 02:47:49;;;;;;;10.07;3.87;;;12.50;99.90;;;;;;7326839;32;20158;-54
2023/06/05 02:51:51;;;;;;;8.10;3.72;;;12.50;99.90;;;;;;7338241;32;20122;-54
2023/06/05 02:55:53;;;;;;;9.13;4.53;;;12.40;99.90;;;;;;7329870;32;20111;-54
2023/06/05 02:59:55;;;;;;;7.18;3.58;;;12.40;99.90;;;;;;7330809;32;20159;-54
2023/06/05 03:03:59;;;;;;;10.05;4.32;;;12.40;99.90;;;;;;7330341;32;20134;-55
2023/06/05 03:08:01;;;;;;;6.85;3.70;;;12.40;99.90;;;;;;7328995;32;20219;-54
2023/06/05 03:12:03;;;;;;;8.50;4.10;;;12.20;99.90;;;;;;7335974;32;20193;-54
2023/06/05 03:16:05;;;;;;;6.62;3.45;;;12.10;99.90;;;;;;7330956;32;20203;-53
2023/06/05 03:20:09;;;;;;;8.55;4.00;;;12.10;99.90;;;;;;7329899;32;20258;-55
2023/06/05 03:24:14;;;;;;;8.27;3.72;;;12.10;99.90;;;;;;7331535;32;20272;-55
2023/06/05 03:28:17;;;;;;;10.20;4.03;;;12.00;99.90;;;;;;7326498;32;20433;-55
2023/06/05 03:32:18;;;;;;;9.05;3.85;;;12.00;99.90;;;;;;7327139;32;20112;-55
2023/06/05 03:36:21;;;;;;;6.90;3.65;;;11.90;99.90;;;;;;7337137;32;20549;-56
2023/06/05 03:40:22;;;;;;;7.85;4.43;;;11.90;99.90;;;;;;7335123;32;20536;-54
2023/06/05 03:44:24;;;;;;;6.93;4.20;;;11.90;99.90;;;;;;7332819;32;20688;-55
2023/06/05 03:48:26;;;;;;;7.10;4.15;;;11.80;99.90;;;;;;7332602;32;20877;-55
2023/06/05 03:52:29;;;;;;;6.85;4.15;;;11.80;99.90;;;;;;7332547;32;20125;-55
2023/06/05 03:56:34;;;;;;;6.47;4.30;;;11.90;99.90;;;;;;7327363;32;20715;-55
2023/06/05 04:00:36;;;;;;;5.60;3.85;;;11.80;99.90;;;;;;7318535;32;20156;-55
2023/06/05 04:04:38;;;;;;;7.97;4.32;;;11.80;99.90;;;;;;7338144;32;20127;-54
2023/06/05 04:08:39;;;;;;;7.82;3.92;;;11.70;99.90;;;;;;7336838;32;20639;-55
2023/06/05 04:12:41;;;;;;;10.07;4.47;;;11.70;99.90;;;;;;7335071;32;20190;-54
2023/06/05 04:16:43;;;;;;;8.80;4.20;;;11.70;99.90;;;;;;7335833;32;20202;-55
2023/06/05 04:20:58;;;;;;;9.93;4.60;;;11.80;99.90;;;;;;7326676;32;20116;-54
2023/06/05 04:25:00;;;;;;;7.47;4.07;;;11.70;99.90;;;;;;7315431;32;20119;-53
2023/06/05 04:29:09;;;;;;;8.73;4.25;;;11.80;99.90;;;;;;7328764;32;20513;-54
2023/06/05 04:33:11;;;;;;;6.15;4.55;;;11.90;99.90;;;;;;7314627;32;20264;-55
2023/06/05 04:37:13;;;;;;;7.15;4.43;;;12.10;99.90;;;;;;7335567;32;20111;-55
2023/06/05 04:41:15;;;;;;;10.00;4.43;;;12.20;99.90;;;;;;7335060;32;20557;-55
2023/06/05 04:45:17;;;;;;;12.07;4.47;;;12.40;99.90;;;;;;7333493;32;20137;-55
2023/06/05 04:49:19;;;;;;;10.07;4.93;;;12.50;99.90;;;;;;7331849;32;20237;-56
2023/06/05 04:53:20;;;;;;;9.45;4.68;;;12.70;99.90;;;;;;7335419;32;20160;-56
2023/06/05 04:57:24;;;;;;;7.70;4.18;;;12.80;99.90;;;;;;7335863;32;20134;-57
2023/06/05 05:01:27;;;;;;;9.68;4.22;;;13.00;99.90;;;;;;7332895;32;20222;-55
2023/06/05 05:05:29;;;;;;;17.37;10.68;;;13.30;99.90;;;;;;7332692;32;20114;-55
2023/06/05 05:09:31;;;;;;;7.35;4.25;;;13.40;99.90;;;;;;7324715;32;20655;-56
2023/06/05 05:13:33;;;;;;;6.82;3.97;;;13.70;99.90;;;;;;7328097;32;20189;-55
2023/06/05 05:17:35;;;;;;;9.38;4.37;;;13.70;99.90;;;;;;7326933;32;20192;-56
2023/06/05 05:21:37;;;;;;;7.80;4.15;;;14.00;99.90;;;;;;7330058;32;20240;-56
2023/06/05 05:25:39;;;;;;;7.57;4.35;;;14.20;99.90;;;;;;7329699;32;20188;-56
2023/06/05 05:29:41;;;;;;;8.07;4.55;;;14.40;99.90;;;;;;7325607;32;20168;-55
2023/06/05 05:33:43;;;;;;;6.55;4.15;;;14.50;99.90;;;;;;7325228;32;20115;-55
2023/06/05 05:37:45;;;;;;;9.50;4.35;;;14.60;99.90;;;;;;7320357;32;20119;-56
2023/06/05 05:41:47;;;;;;;7.43;4.00;;;14.80;99.90;;;;;;7323237;32;20111;-56
2023/06/05 05:45:48;;;;;;;8.05;4.50;;;15.30;99.90;;;;;;7331875;32;20171;-57
2023/06/05 05:49:50;;;;;;;8.35;4.78;;;16.00;99.90;;;;;;7327013;32;20516;-56
2023/06/05 05:53:52;;;;;;;10.07;4.43;;;16.70;99.90;;;;;;7327786;32;20139;-56
2023/06/05 05:57:54;;;;;;;6.32;3.50;;;16.60;99.90;;;;;;7328836;32;20138;-56
2023/06/05 06:01:59;;;;;;;8.32;5.05;;;16.70;99.90;;;;;;7328933;32;20851;-57
2023/06/05 06:06:02;;;;;;;6.00;3.12;;;17.50;99.90;;;;;;7327866;32;20850;-56
2023/06/05 06:10:04;;;;;;;5.57;3.37;;;18.50;99.90;;;;;;7335741;32;20249;-57
2023/06/05 06:14:06;;;;;;;8.88;3.72;;;18.70;99.90;;;;;;7331391;32;20135;-57
2023/06/05 06:18:08;;;;;;;7.22;3.30;;;19.40;99.90;;;;;;7311335;32;20254;-56
2023/06/05 06:22:13;;;;;;;6.07;3.42;;;19.20;99.90;;;;;;7335239;32;20133;-57
2023/06/05 06:26:15;;;;;;;6.87;3.58;;;20.00;99.90;;;;;;7333422;32;20114;-57
2023/06/05 06:30:17;;;;;;;6.95;3.70;;;19.90;99.90;;;;;;7332956;32;20116;-58
2023/06/05 06:34:19;;;;;;;5.75;3.20;;;20.40;99.90;;;;;;7337616;32;20143;-56
2023/06/05 06:38:20;;;;;;;7.62;3.60;;;20.90;99.90;;;;;;7330456;32;20107;-56
2023/06/05 06:42:22;;;;;;;6.78;3.15;;;20.30;99.90;;;;;;7334257;32;20162;-56
2023/06/05 06:46:24;;;;;;;7.50;2.90;;;19.80;99.90;;;;;;7332123;32;20155;-56
2023/06/05 06:50:26;;;;;;;5.87;2.80;;;20.50;99.90;;;;;;7316257;32;20186;-56
2023/06/05 06:54:28;;;;;;;7.30;3.25;;;21.30;99.90;;;;;;7317946;32;20138;-57
2023/06/05 06:58:30;;;;;;;7.75;3.05;;;20.90;99.90;;;;;;7328418;32;20135;-57
2023/06/05 07:02:32;;;;;;;7.70;2.80;;;21.00;99.90;;;;;;7315918;32;20218;-57
2023/06/05 07:06:33;;;;;;;5.12;2.47;;;20.80;99.90;;;;;;7327837;32;20127;-57
2023/06/05 07:10:36;;;;;;;6.72;2.70;;;21.00;99.90;;;;;;7330267;32;20747;-57
2023/06/05 07:14:39;;;;;;;7.85;2.50;;;21.40;99.90;;;;;;7332738;32;20131;-58
2023/06/05 07:18:41;;;;;;;6.87;2.85;;;22.40;99.90;;;;;;7331029;32;20213;-58
2023/06/05 07:22:45;;;;;;;5.80;2.87;;;21.70;99.90;;;;;;7330970;32;20134;-58
2023/06/05 07:26:46;;;;;;;6.78;2.50;;;21.70;99.90;;;;;;7307652;32;20301;-57
2023/06/05 07:30:50;;;;;;;7.00;2.75;;;22.10;99.90;;;;;;7333509;32;20188;-57
2023/06/05 07:34:51;;;;;;;6.12;2.85;;;21.40;99.90;;;;;;7340670;32;20143;-58
2023/06/05 07:38:53;;;;;;;6.95;2.62;;;22.10;99.90;;;;;;7329741;32;20135;-57
2023/06/05 07:42:55;;;;;;;5.18;2.33;;;22.20;99.90;;;;;;7328683;32;20864;-59
2023/06/05 07:46:57;;;;;;;4.72;2.50;;;21.80;99.90;;;;;;7313072;32;20133;-59
2023/06/05 07:50:59;;;;;;;5.95;2.72;;;21.70;99.90;;;;;;7328917;32;20234;-59
2023/06/05 07:55:00;;;;;;;6.80;2.67;;;21.40;99.90;;;;;;7316467;32;20103;-60
2023/06/05 07:59:04;;;;;;;5.65;2.95;;;21.00;99.90;;;;;;7326311;32;20104;-59
2023/06/05 08:03:05;;;;;;;6.18;2.50;;;21.00;99.90;;;;;;7330638;32;20244;-59
2023/06/05 08:07:11;;;;;;;7.70;2.60;;;21.40;99.90;;;;;;7324693;32;20941;-59
2023/06/05 08:11:13;;;;;;;5.05;2.15;;;21.60;99.90;;;;;;7323379;32;20633;-58
2023/06/05 08:15:15;;;;;;;6.62;2.37;;;21.80;99.90;;;;;;7325263;32;20119;-59
2023/06/05 08:19:17;;;;;;;5.22;2.08;;;21.50;99.90;;;;;;7326260;32;20195;-59
2023/06/05 08:23:18;;;;;;;6.97;2.22;;;21.90;99.60;;;;;;7329275;32;20218;-59
2023/06/05 08:27:20;;;;;;;9.27;2.00;;;22.10;99.90;;;;;;7324229;32;20115;-60
2023/06/05 08:31:23;;;;;;;5.87;1.98;;;22.40;99.90;;;;;;7330581;32;20126;-58
2023/06/05 08:35:25;;;;;;;6.22;2.08;;;22.60;96.70;;;;;;7323065;32;20919;-57
2023/06/05 08:39:31;;;;;;;3.55;2.00;;;22.70;96.30;;;;;;7323817;32;20202;-57
2023/06/05 08:43:37;;;;;;;6.30;2.10;;;22.80;96.60;;;;;;7330979;32;20143;-57
2023/06/05 08:47:41;;;;;;;4.57;1.90;;;23.40;95.00;;;;;;7324083;32;20285;-57
2023/06/05 08:51:45;;;;;;;5.78;2.10;;;23.70;94.60;;;;;;7325655;32;20115;-57
2023/06/05 08:55:50;;;;;;;4.62;2.28;;;24.40;93.30;;;;;;7333487;32;20291;-58
2023/06/05 08:59:52;;;;;;;5.70;1.85;;;24.60;90.70;;;;;;7327893;32;20233;-57
2023/06/05 09:03:54;;;;;;;6.37;2.10;;;23.20;91.10;;;;;;7323268;32;20700;-57
2023/06/05 09:07:56;;;;;;;3.87;1.70;;;23.50;91.80;;;;;;7323560;32;20171;-58
2023/06/05 09:12:08;;;;;;;8.20;2.28;;;24.10;92.00;;;;;;7329374;32;20149;-57
2023/06/05 09:16:10;;;;;;;5.05;2.12;;;24.60;90.90;;;;;;7320245;32;20153;-58
2023/06/05 09:20:24;;;;;;;5.25;1.98;;;24.30;86.90;;;;;;7320619;32;20209;-58
2023/06/05 09:24:27;;;;;;;8.95;2.17;;;24.30;89.40;;;;;;7329032;32;20208;-58
2023/06/05 09:28:29;;;;;;;4.90;2.35;;;25.50;87.40;;;;;;7328187;32;20116;-58
2023/06/05 09:32:31;;;;;;;3.92;2.30;;;25.90;91.10;;;;;;7328026;32;20536;-58
2023/06/05 09:36:34;;;;;;;6.97;2.20;;;25.70;85.00;;;;;;7323643;32;20198;-58
2023/06/05 09:40:37;;;;;;;5.37;2.17;;;25.30;83.30;;;;;;7331551;32;20167;-58
2023/06/05 09:44:39;;;;;;;8.55;2.20;;;25.60;74.80;;;;;;7334050;32;20132;-59
2023/06/05 09:48:43;;;;;;;9.52;2.60;;;25.60;85.50;;;;;;7334024;32;20107;-57
2023/06/05 09:52:45;;;;;;;8.30;2.83;;;26.00;80.40;;;;;;7329237;32;20138;-57
2023/06/05 09:56:51;;;;;;;5.43;2.35;;;26.20;79.70;;;;;;7337296;32;20589;-57
2023/06/05 10:00:53;;;;;;;9.13;2.60;;;25.50;82.30;;;;;;7325814;32;20722;-56
2023/06/05 10:04:58;;;;;;;6.80;2.33;;;25.70;82.00;;;;;;7332328;32;20252;-57
2023/06/05 10:09:01;;;;;;;7.82;2.67;;;25.90;81.70;;;;;;7320412;32;20778;-57
2023/06/05 10:13:03;;;;;;;3.25;2.35;;;26.00;76.70;;;;;;7318507;32;20126;-56
2023/06/05 10:17:05;;;;;;;10.77;2.60;;;26.00;74.90;;;;;;7323666;32;20146;-56
2023/06/05 10:21:08;;;;;;;6.78;2.47;;;26.00;75.00;;;;;;7323928;32;20206;-57
2023/06/05 10:25:12;;;;;;;4.62;2.62;;;26.60;79.80;;;;;;7332841;32;20108;-58
2023/06/05 10:29:35;;;;;;;6.47;2.55;;;25.70;70.00;;;;;;7331722;32;20177;-56
2023/06/05 10:33:57;;;;;;;3.45;2.30;;;24.60;70.30;;;;;;7334243;32;20358;-57
2023/06/05 10:38:20;;;;;;;7.30;2.67;;;25.20;72.50;;;;;;7332853;32;20611;-57
2023/06/05 10:42:26;;;;;;;5.55;2.53;;;25.50;74.20;;;;;;7333252;32;20126;-57
2023/06/05 10:46:31;;;;;;;6.30;2.40;;;24.60;65.20;;;;;;7326413;32;20476;-57
2023/06/05 10:50:33;;;;;;;4.55;1.90;;;24.90;67.20;;;;;;7333563;32;20126;-56
2023/06/05 10:54:38;;;;;;;5.47;2.00;;;25.50;63.30;;;;;;7319274;32;20196;-57
2023/06/05 10:59:13;;;;;;;5.15;1.92;;;25.40;65.40;;;;;;7328901;32;20169;-57
2023/06/05 11:03:15;;;;;;;4.85;2.10;;;25.90;62.70;;;;;;7331667;32;20167;-57
2023/06/05 11:07:24;;;;;;;3.45;2.08;;;25.80;61.70;;;;;;7331485;32;20118;-58
2023/06/05 11:11:26;;;;;;;2.97;1.90;;;25.40;61.10;;;;;;7321193;32;20182;-57
2023/06/05 11:15:31;;;;;;;4.12;1.70;;;25.10;61.10;;;;;;7341747;32;20119;-57
2023/06/05 11:19:36;;;;;;;6.72;2.15;;;25.50;56.20;;;;;;7338661;32;20768;-58
2023/06/05 11:24:00;;;;;;;3.60;2.10;;;25.60;58.10;;;;;;7333623;32;20135;-56
2023/06/05 11:28:08;;;;;;;6.12;2.30;;;25.60;59.40;;;;;;7314403;32;20167;-57
2023/06/05 11:32:11;;;;;;;4.85;1.70;;;25.40;59.70;;;;;;7332686;32;20436;-57
2023/06/05 11:36:14;;;;;;;5.50;1.90;;;25.70;59.40;;;;;;7326205;32;20207;-55
2023/06/05 11:40:25;;;;;;;3.03;1.55;;;25.70;57.60;;;;;;7331211;32;20491;-57
2023/06/05 11:44:32;;;;;;;3.22;1.95;;;25.70;56.40;;;;;;7333539;32;20205;-57
2023/06/05 11:48:34;;;;;;;5.57;2.40;;;25.30;57.80;;;;;;7328156;32;20230;-57
2023/06/05 11:52:36;;;;;;;5.37;2.20;;;25.80;58.00;;;;;;7326435;32;20489;-58
2023/06/05 11:56:45;;;;;;;3.97;2.25;;;25.30;59.90;;;;;;7326757;32;20115;-57
2023/06/05 12:00:47;;;;;;;6.18;1.90;;;26.20;60.80;;;;;;7324759;32;20199;-57
2023/06/05 12:04:49;;;;;;;6.05;1.85;;;26.30;55.90;;;;;;7323410;32;20561;-56
2023/06/05 12:08:51;;;;;;;8.73;2.33;;;26.50;54.80;;;;;;7322009;32;20134;-57
2023/06/05 12:12:53;;;;;;;9.02;1.90;;;26.80;57.10;;;;;;7324632;32;20116;-57
2023/06/05 12:16:55;;;;;;;3.58;2.10;;;27.00;57.70;;;;;;7325633;32;20202;-58
2023/06/05 12:21:01;;;;;;;5.07;2.85;;;27.10;55.60;;;;;;7326752;32;20127;-57
2023/06/05 12:25:19;;;;;;;3.58;2.00;;;27.70;55.50;;;;;;7321578;32;20107;-56
2023/06/05 12:29:24;;;;;;;4.18;2.03;;;27.60;56.20;;;;;;7321119;32;20147;-57
2023/06/05 12:33:27;;;;;;;4.82;1.77;;;28.00;56.50;;;;;;7329590;32;20186;-56
2023/06/05 12:37:37;;;;;;;3.22;1.90;;;28.40;56.60;;;;;;7332682;32;20142;-57
2023/06/05 12:41:39;;;;;;;6.03;1.90;;;29.60;57.00;;;;;;7329835;32;20186;-57
2023/06/05 12:45:43;;;;;;;5.10;2.00;;;28.70;50.90;;;;;;7329003;32;20115;-56
2023/06/05 12:49:45;;;;;;;4.65;1.85;;;28.90;52.40;;;;;;7332129;32;20208;-56
2023/06/05 12:53:47;;;;;;;4.15;1.80;;;29.80;53.10;;;;;;7329396;32;20334;-58
2023/06/05 12:57:49;;;;;;;4.22;2.00;;;29.60;49.40;;;;;;7329477;32;20149;-57
2023/06/05 13:01:50;;;;;;;11.50;2.28;;;29.40;50.90;;;;;;7328058;32;20166;-57
2023/06/05 13:05:52;;;;;;;4.30;1.80;;;29.20;50.80;;;;;;7332019;32;20561;-60
2023/06/05 13:09:55;;;;;;;7.12;2.00;;;29.60;51.20;;;;;;7327140;32;20107;-57
2023/06/05 13:13:57;;;;;;;2.78;1.80;;;28.10;51.10;;;;;;7325090;32;20179;-58
2023/06/05 13:17:58;;;;;;;3.42;1.92;;;28.90;54.40;;;;;;7329619;32;20208;-58
2023/06/05 13:22:01;;;;;;;4.03;2.10;;;29.20;51.00;;;;;;7330877;32;20126;-58
2023/06/05 13:26:03;;;;;;;6.12;2.05;;;29.20;50.50;;;;;;7328393;32;20140;-57
2023/06/05 13:30:06;;;;;;;4.18;3.37;;;28.10;51.70;;;;;;7322331;32;20169;-57
2023/06/05 13:34:08;;;;;;;5.37;2.75;;;27.60;52.00;;;;;;7323382;32;20198;-58
2023/06/05 13:38:10;;;;;;;4.03;2.03;;;27.30;53.10;;;;;;7327453;32;20337;-57
2023/06/05 13:42:12;;;;;;;5.12;2.00;;;27.70;51.40;;;;;;7323613;32;20176;-57
2023/06/05 13:46:13;;;;;;;6.28;3.12;;;28.10;52.50;;;;;;7324953;32;20107;-56
2023/06/05 13:50:15;;;;;;;4.10;1.90;;;27.90;51.90;;;;;;7310599;32;20115;-57
2023/06/05 13:54:17;;;;;;;7.40;2.10;;;27.40;51.70;;;;;;7325726;32;20248;-58
2023/06/05 13:58:19;;;;;;;3.97;1.90;;;27.30;51.90;;;;;;7328214;32;20217;-57
2023/06/05 14:02:21;;;;;;;4.55;2.12;;;27.00;52.70;;;;;;7326403;32;20200;-56
2023/06/05 14:06:23;;;;;;;5.87;2.10;;;27.20;52.80;;;;;;7322338;32;20568;-56
2023/06/05 14:10:25;;;;;;;10.52;7.82;;;28.60;53.40;;;;;;7318747;32;20133;-56
2023/06/05 14:14:27;;;;;;;6.62;2.10;;;29.50;50.40;;;;;;7330834;32;20249;-56
2023/06/05 14:18:30;;;;;;;4.07;2.20;;;29.60;48.90;;;;;;7326211;32;20427;-57
2023/06/05 14:22:31;;;;;;;4.22;1.87;;;29.90;49.60;;;;;;7312885;32;22240;-57
2023/06/05 14:26:33;;;;;;;4.28;2.33;;;30.00;49.40;;;;;;7321009;32;20104;-58
2023/06/05 14:30:35;;;;;;;6.40;2.08;;;30.00;48.60;;;;;;7325354;32;20123;-57
2023/06/05 14:34:37;;;;;;;5.10;2.17;;;29.90;48.80;;;;;;7318511;32;20211;-57
2023/06/05 14:38:39;;;;;;;6.78;2.00;;;30.40;48.70;;;;;;7325010;32;20206;-55
2023/06/05 14:42:40;;;;;;;4.40;2.00;;;30.10;47.60;;;;;;7327874;32;20119;-57
2023/06/05 14:46:42;;;;;;;6.93;2.10;;;30.30;47.70;;;;;;7328905;32;20499;-57
2023/06/05 14:50:46;;;;;;;4.18;2.10;;;30.90;47.10;;;;;;7324623;32;20257;-58
2023/06/05 14:54:48;;;;;;;2.87;2.35;;;30.90;47.20;;;;;;7328918;32;20616;-57
2023/06/05 14:59:06;;;;;;;3.60;2.05;;;30.30;47.30;;;;;;7326600;32;20118;-57
2023/06/05 15:03:27;;;;;;;3.58;1.80;;;30.50;47.90;;;;;;7326772;32;20195;-57
2023/06/05 15:07:39;;;;;;;4.78;2.10;;;29.40;47.50;;;;;;7328028;32;20187;-57
2023/06/05 15:11:41;;;;;;;5.35;2.15;;;29.20;47.50;;;;;;7315136;32;20138;-57
2023/06/05 15:15:42;;;;;;;5.12;1.90;;;28.30;48.50;;;;;;7324655;32;20250;-57
2023/06/05 15:19:45;;;;;;;4.28;2.25;;;28.20;49.20;;;;;;7323725;32;20103;-57
2023/06/05 15:23:47;;;;;;;7.28;2.08;;;27.70;50.40;;;;;;7330276;32;20154;-56
2023/06/05 15:27:49;;;;;;;4.72;2.00;;;27.30;51.60;;;;;;7328642;32;20124;-56
2023/06/05 15:31:51;;;;;;;3.75;2.12;;;26.60;54.50;;;;;;7327039;32;20206;-56
2023/06/05 15:35:52;;;;;;;5.37;2.20;;;26.30;54.00;;;;;;7327409;32;20234;-56
2023/06/05 15:39:55;;;;;;;6.53;2.50;;;26.20;54.30;;;;;;7316228;32;20126;-57
2023/06/05 15:43:57;;;;;;;3.92;1.98;;;25.90;54.40;;;;;;7332985;32;20249;-56
2023/06/05 15:47:59;;;;;;;3.90;2.35;;;25.30;55.10;;;;;;7325411;32;20165;-56
2023/06/05 15:52:01;;;;;;;6.43;2.55;;;25.20;55.10;;;;;;7330033;32;20115;-56
2023/06/05 15:56:03;;;;;;;4.95;2.30;;;25.00;55.80;;;;;;7326172;32;20137;-54
2023/06/05 16:00:06;;;;;;;3.70;1.95;;;25.10;55.80;;;;;;7326176;32;20591;-56
2023/06/05 16:04:08;;;;;;;5.68;2.03;;;24.70;55.10;;;;;;7313739;32;20189;-56
2023/06/05 16:08:10;;;;;;;5.78;2.12;;;24.80;55.70;;;;;;7333757;32;20235;-55
2023/06/05 16:12:12;;;;;;;5.00;2.28;;;24.70;56.30;;;;;;7330049;32;20168;-56
2023/06/05 16:16:14;;;;;;;4.47;1.80;;;24.60;57.00;;;;;;7326593;32;20115;-56
2023/06/05 16:20:16;;;;;;;7.90;2.22;;;24.60;57.20;;;;;;7323998;32;20624;-56
2023/06/05 16:24:18;;;;;;;4.90;2.15;;;24.50;57.60;;;;;;7325693;32;20280;-57
2023/06/05 16:28:20;;;;;;;5.45;1.90;;;24.40;57.60;;;;;;7308985;32;20119;-56
2023/06/05 16:32:22;;;;;;;8.35;2.33;;;24.30;57.40;;;;;;7325337;32;20166;-56
2023/06/05 16:36:24;;;;;;;6.75;2.10;;;24.20;57.40;;;;;;7327150;32;20241;-56
2023/06/05 16:40:26;;;;;;;4.62;2.20;;;24.00;57.80;;;;;;7316587;32;20160;-57
2023/06/05 16:44:29;;;;;;;4.20;2.22;;;23.90;58.80;;;;;;7323649;32;20911;-56
2023/06/05 16:48:32;;;;;;;4.37;2.17;;;24.00;59.70;;;;;;7321093;32;20655;-57
2023/06/05 16:52:33;;;;;;;6.53;2.00;;;24.00;60.10;;;;;;7317939;32;20193;-57
2023/06/05 16:56:35;;;;;;;4.18;2.10;;;23.70;58.90;;;;;;7327002;32;20226;-57
2023/06/05 17:00:38;;;;;;;3.10;1.92;;;23.60;59.70;;;;;;7317979;32;20595;-58
2023/06/05 17:04:40;;;;;;;4.25;2.10;;;23.70;59.40;;;;;;7318160;32;20131;-57
2023/06/05 17:08:42;;;;;;;4.32;2.03;;;23.70;59.30;;;;;;7321248;32;20432;-58
2023/06/05 17:12:44;;;;;;;13.57;10.27;;;23.50;58.70;;;;;;7319557;32;20498;-57
2023/06/05 17:16:46;;;;;;;6.07;2.28;;;23.50;58.90;;;;;;7323551;32;20100;-57
2023/06/05 17:20:48;;;;;;;4.15;2.10;;;23.30;59.20;;;;;;7318666;32;20133;-57
2023/06/05 17:24:50;;;;;;;3.80;1.95;;;23.30;60.00;;;;;;7324107;32;20607;-58
2023/06/05 17:28:57;;;;;;;5.35;1.92;;;23.40;62.10;;;;;;7321162;32;20147;-57
2023/06/05 17:32:59;;;;;;;5.43;2.30;;;23.30;60.30;;;;;;7304749;32;20840;-58
2023/06/05 17:37:01;;;;;;;2.72;1.90;;;23.10;60.30;;;;;;7320486;32;20147;-58
2023/06/05 17:41:03;;;;;;;4.85;2.17;;;23.10;60.80;;;;;;7324858;32;20185;-59
2023/06/05 17:45:05;;;;;;;5.97;2.20;;;23.10;60.70;;;;;;7324180;32;20264;-59
2023/06/05 17:49:07;;;;;;;4.45;2.92;;;23.00;60.80;;;;;;7324070;32;20715;-59
2023/06/05 17:53:10;;;;;;;5.03;2.80;;;22.90;61.30;;;;;;7321350;32;20106;-58
2023/06/05 17:57:12;;;;;;;3.08;2.15;;;22.90;62.20;;;;;;7317833;32;20135;-58
2023/06/05 18:01:14;;;;;;;4.82;2.47;;;22.80;61.80;;;;;;7306619;32;20323;-58
2023/06/05 18:05:19;;;;;;;7.75;2.58;;;22.60;62.90;;;;;;7317204;32;20315;-58
2023/06/05 18:09:21;;;;;;;7.37;2.15;;;22.60;63.80;;;;;;7317520;32;20149;-58
2023/06/05 18:13:24;;;;;;;7.75;2.05;;;22.60;63.80;;;;;;7324467;32;20103;-58
2023/06/05 18:17:28;;;;;;;6.30;1.98;;;22.50;64.10;;;;;;7328178;32;20119;-59
2023/06/05 18:21:30;;;;;;;5.60;2.37;;;22.40;63.10;;;;;;7330528;32;20132;-58
2023/06/05 18:25:32;;;;;;;3.97;2.20;;;22.30;63.00;;;;;;7338864;32;20241;-58
2023/06/05 18:29:33;;;;;;;4.18;2.30;;;22.20;62.90;;;;;;7340931;32;20152;-57
2023/06/05 18:33:35;;;;;;;3.50;2.30;;;22.10;63.00;;;;;;7337518;32;20146;-61
2023/06/05 18:37:39;;;;;;;3.83;2.20;;;21.90;64.70;;;;;;7339389;32;20120;-59
2023/06/05 18:41:41;;;;;;;4.75;2.30;;;21.80;63.60;;;;;;7333569;32;20137;-58
2023/06/05 18:45:43;;;;;;;3.42;2.10;;;21.80;64.30;;;;;;7327664;32;20119;-57
2023/06/05 18:49:45;;;;;;;25.05;18.95;;;21.70;65.40;;;;;;7330148;32;20107;-58
2023/06/05 18:53:47;;;;;;;4.30;2.85;;;21.60;66.10;;;;;;7313782;32;20147;-58
2023/06/05 18:57:49;;;;;;;6.82;2.15;;;21.40;67.80;;;;;;7321546;32;20107;-57
2023/06/05 19:01:51;;;;;;;3.47;2.17;;;21.20;69.10;;;;;;7322745;32;20128;-57
2023/06/05 19:05:53;;;;;;;3.62;1.85;;;21.10;69.60;;;;;;7324046;32;20490;-58
2023/06/05 19:09:54;;;;;;;3.60;2.17;;;20.90;71.30;;;;;;7328436;32;20241;-58
2023/06/05 19:13:56;;;;;;;4.43;2.10;;;20.60;74.50;;;;;;7321223;32;20763;-59
2023/06/05 19:17:58;;;;;;;7.05;2.20;;;20.40;78.50;;;;;;7333166;32;20683;-58
2023/06/05 19:22:00;;;;;;;6.78;2.15;;;20.20;79.50;;;;;;7324541;32;20148;-57
2023/06/05 19:26:02;;;;;;;5.07;3.60;;;19.90;85.00;;;;;;7316284;32;20175;-56
2023/06/05 19:30:04;;;;;;;5.78;3.00;;;19.70;90.90;;;;;;7322500;32;20119;-57
2023/06/05 19:34:06;;;;;;;7.82;2.55;;;19.50;94.40;;;;;;7327459;32;20145;-58
2023/06/05 19:38:08;;;;;;;6.78;2.33;;;19.10;99.50;;;;;;7326260;32;20220;-58
2023/06/05 19:42:10;;;;;;;6.22;2.83;;;18.90;99.90;;;;;;7307983;32;20142;-58
2023/06/05 19:46:12;;;;;;;5.37;2.35;;;18.70;99.90;;;;;;7324898;32;20145;-57
2023/06/05 19:50:14;;;;;;;4.22;2.37;;;18.40;99.90;;;;;;7315378;32;20127;-58
2023/06/05 19:54:16;;;;;;;6.93;3.03;;;18.10;99.90;;;;;;7319742;32;20172;-56
2023/06/05 19:58:18;;;;;;;5.10;2.65;;;17.80;99.90;;;;;;7320064;32;20386;-56
2023/06/05 20:02:20;;;;;;;5.15;3.15;;;17.60;99.90;;;;;;7315798;32;20147;-56
2023/06/05 20:06:23;;;;;;;8.55;2.65;;;17.30;99.90;;;;;;7312064;32;20209;-55
2023/06/05 20:10:25;;;;;;;4.78;2.70;;;17.10;99.90;;;;;;7332690;32;20145;-55
2023/06/05 20:14:26;;;;;;;2.78;2.20;;;16.90;99.90;;;;;;7329699;32;20104;-56
2023/06/05 20:18:30;;;;;;;4.50;2.12;;;16.80;99.90;;;;;;7336324;32;20190;-55
2023/06/05 20:22:32;;;;;;;7.00;2.28;;;16.50;99.90;;;;;;7314807;32;20882;-55
2023/06/05 20:26:34;;;;;;;5.47;2.97;;;16.40;99.90;;;;;;7310706;32;20153;-55
2023/06/05 20:30:36;;;;;;;7.87;2.53;;;16.20;99.90;;;;;;7324576;32;20132;-55
2023/06/05 20:34:38;;;;;;;6.90;2.60;;;16.00;99.90;;;;;;7329053;32;20226;-55
2023/06/05 20:38:39;;;;;;;5.70;2.55;;;15.80;99.90;;;;;;7328885;32;20127;-55
2023/06/05 20:42:41;;;;;;;9.20;3.08;;;15.60;99.90;;;;;;7331069;32;20134;-55
2023/06/05 20:46:43;;;;;;;4.53;2.33;;;15.60;99.90;;;;;;7309787;32;20115;-54
2023/06/05 20:50:49;;;;;;;4.45;2.45;;;15.40;99.90;;;;;;7332859;32;20152;-55
2023/06/05 20:57:22;;;;;;;3.83;2.53;;;15.20;99.90;;;;;;7399016;31;20150;-56
2023/06/05 21:01:28;;;;;;;4.90;2.92;;;15.10;99.90;;;;;;7351066;32;20111;-57
2023/06/05 21:05:30;;;;;;;10.02;2.95;;;14.90;99.90;;;;;;7353546;32;20150;-56